Suez, Egypt
Current Conditions -  °F | °C
As of 9:00 AM on Friday 19 Dec 2014 (Local Time) from HECA Reporting Station
Haze Haze  
Wind Chill: 70°   Ceiling: Unl
Heat Index: 70°   Visibility: 1.8mi
Dew Point: 45°   Wind: 0mph
Humidity: 40%   Direction: NA
Pressure: 30.12"   Gusts: NA
Location:  29.58°N, 32.33°E
Report Text: HECA 190700Z 00000KT 3000 HZ NSC 21/07 Q1020 NOSIG
Loading
Personal Weather Stations






























Interactive Weather Map New forecast layout! Learn more

10-Day Weather Forecast

Advertisements
Track Severe Weather on mobile